Time;durP1;ratioP1;P1;durP2;ratioP2;P2;SDS_P1;SDS_P2;PMS_P1;PMS_P2;Temp;Humidity;BMP_temperature;BMP_pressure;BME280_temperature;BME280_humidity;BME280_pressure;Samples;Min_cycle;Max_cycle;Signal;HPM_P1;HPM_P2
2022/06/03 00:00:27;;;;;;;;;;;;;;;20.01;63.91;100725.62;1796389;78;20197;-65
2022/06/03 00:03:44;;;;;;;;;;;;;;;19.96;63.93;100728.26;1812846;79;20533;-66
2022/06/03 00:07:07;;;;;;;;;;;;;;;19.92;64.03;100741.42;1814510;79;20596;-63
2022/06/03 00:10:27;;;;;;;;;;;;;;;19.87;64.14;100746.27;1814005;79;20193;-64
2022/06/03 00:13:51;;;;;;;;;;;;;;;19.84;64.33;100752.30;1814511;79;20189;-62
2022/06/03 00:17:07;;;;;;;;;;;;;;;19.83;64.46;100778.91;1814594;79;20272;-64
2022/06/03 00:20:21;;;;;;;;;;;;;;;19.79;64.58;100791.02;1813850;79;20225;-64
2022/06/03 00:23:46;;;;;;;;;;;;;;;19.71;64.65;100795.45;1814098;79;20600;-63
2022/06/03 00:26:58;;;;;;;;;;;;;;;19.64;64.71;100827.14;1814561;79;20339;-65
2022/06/03 00:30:11;;;;;;;;;;;;;;;19.54;64.81;100829.02;1814352;79;20248;-64
2022/06/03 00:33:45;;;;;;;;;;;;;;;19.49;64.90;100830.78;1798822;79;20564;-63
2022/06/03 00:37:05;;;;;;;;;;;;;;;19.42;64.99;100850.25;1812654;79;20236;-64
2022/06/03 00:40:32;;;;;;;;;;;;;;;19.34;65.10;100829.69;1814381;79;20268;-63
2022/06/03 00:43:56;;;;;;;;;;;;;;;19.29;65.19;100838.69;1771889;81;20192;-65
2022/06/03 00:47:24;;;;;;;;;;;;;;;19.25;65.28;100833.73;1771918;81;20211;-64
2022/06/03 00:50:41;;;;;;;;;;;;;;;19.22;65.42;100844.76;1798457;79;20190;-64
2022/06/03 00:53:58;;;;;;;;;;;;;;;19.20;65.50;100851.06;1798387;79;20186;-65
2022/06/03 00:57:24;;;;;;;;;;;;;;;19.17;65.57;100830.69;1761155;81;20204;-64
2022/06/03 01:00:33;;;;;;;;;;;;;;;19.14;65.64;100821.94;1760595;81;20255;-63
2022/06/03 01:04:08;;;;;;;;;;;;;;;19.12;65.69;100837.98;1760665;81;20271;-63
2022/06/03 01:07:17;;;;;;;;;;;;;;;19.10;65.74;100842.38;1761103;81;20204;-66
2022/06/03 01:10:34;;;;;;;;;;;;;;;19.08;65.85;100813.97;1760804;81;20232;-65
2022/06/03 01:13:59;;;;;;;;;;;;;;;19.05;65.90;100822.75;1761022;81;20196;-63
2022/06/03 01:17:16;;;;;;;;;;;;;;;19.03;65.89;100829.56;1761147;81;20517;-64
2022/06/03 01:20:43;;;;;;;;;;;;;;;19.02;65.97;100798.73;1761245;81;20252;-66
2022/06/03 01:24:19;;;;;;;;;;;;;;;19.00;66.04;100800.34;1761116;81;20197;-64
2022/06/03 01:27:36;;;;;;;;;;;;;;;18.98;65.98;100794.72;1760978;81;20638;-64
2022/06/03 01:31:10;;;;;;;;;;;;;;;18.93;65.98;100771.76;1760535;81;20251;-63
2022/06/03 01:34:37;;;;;;;;;;;;;;;18.89;65.96;100796.87;1760513;81;20216;-64
2022/06/03 01:38:00;;;;;;;;;;;;;;;18.86;66.06;100795.06;1741573;81;20200;-63
2022/06/03 01:41:16;;;;;;;;;;;;;;;18.87;66.25;100759.30;1761341;81;20544;-63
2022/06/03 01:44:36;;;;;;;;;;;;;;;18.84;66.30;100784.19;1736759;82;20178;-63
2022/06/03 01:48:00;;;;;;;;;;;;;;;18.83;66.39;100791.34;1798888;79;20265;-65
2022/06/03 01:51:28;;;;;;;;;;;;;;;18.84;66.53;100790.27;1763343;81;20263;-63
2022/06/03 01:54:57;;;;;;;;;;;;;;;18.84;66.65;100780.03;1804391;79;20276;-65
2022/06/03 01:58:12;;;;;;;;;;;;;;;18.85;66.66;100779.50;1804103;79;20210;-64
2022/06/03 02:01:40;;;;;;;;;;;;;;;18.79;66.52;100783.16;1804184;79;20252;-64
2022/06/03 02:04:56;;;;;;;;;;;;;;;18.74;66.60;100774.64;1803982;79;20225;-65
2022/06/03 02:08:33;;;;;;;;;;;;;;;18.73;66.72;100761.30;1804097;79;20518;-65
2022/06/03 02:11:57;;;;;;;;;;;;;;;18.70;66.67;100767.28;1804172;79;20224;-65
2022/06/03 02:15:13;;;;;;;;;;;;;;;18.66;66.67;100777.09;1804312;79;20240;-65
2022/06/03 02:18:22;;;;;;;;;;;;;;;18.66;66.79;100777.09;1803967;79;20182;-64
2022/06/03 02:21:47;;;;;;;;;;;;;;;18.65;66.84;100771.25;1803973;79;20569;-64
2022/06/03 02:25:04;;;;;;;;;;;;;;;18.66;66.94;100778.48;1804229;79;20213;-65
2022/06/03 02:28:29;;;;;;;;;;;;;;;18.66;66.97;100775.71;1803646;79;20217;-65
2022/06/03 02:31:44;;;;;;;;;;;;;;;18.67;67.05;100776.05;1803607;79;20201;-65
2022/06/03 02:35:08;;;;;;;;;;;;;;;18.68;67.08;100782.45;1803706;79;20210;-65
2022/06/03 02:38:47;;;;;;;;;;;;;;;18.66;67.04;100786.80;1803404;79;20213;-64
2022/06/03 02:42:19;;;;;;;;;;;;;;;18.69;67.16;100801.66;1803657;79;20205;-64
2022/06/03 02:45:44;;;;;;;;;;;;;;;18.72;67.17;100819.77;1803847;79;20534;-65
2022/06/03 02:49:11;;;;;;;;;;;;;;;18.74;67.20;100831.50;1804046;79;20186;-63
2022/06/03 02:52:25;;;;;;;;;;;;;;;18.79;67.31;100845.02;1777760;80;20217;-65
2022/06/03 02:55:47;;;;;;;;;;;;;;;18.83;67.40;100857.41;1761998;81;20185;-65
2022/06/03 02:59:07;;;;;;;;;;;;;;;18.89;67.51;100860.69;1772324;81;20193;-65
2022/06/03 03:02:41;;;;;;;;;;;;;;;18.95;67.49;100865.36;1721794;82;20213;-64
2022/06/03 03:06:07;;;;;;;;;;;;;;;18.99;67.37;100867.17;1777288;81;20237;-64
2022/06/03 03:09:17;;;;;;;;;;;;;;;18.99;67.28;100855.55;1772404;80;20257;-65
2022/06/03 03:12:44;;;;;;;;;;;;;;;19.02;67.34;100868.98;1777620;80;20202;-65
2022/06/03 03:16:19;;;;;;;;;;;;;;;19.03;67.39;100879.52;1777255;80;20201;-65
2022/06/03 03:19:34;;;;;;;;;;;;;;;19.07;67.45;100883.05;1777287;81;20569;-66
2022/06/03 03:22:57;;;;;;;;;;;;;;;19.13;67.48;100878.53;1772288;81;20205;-64
2022/06/03 03:26:11;;;;;;;;;;;;;;;19.19;67.58;100874.34;1777357;81;20213;-66
2022/06/03 03:29:36;;;;;;;;;;;;;;;19.26;67.65;100868.25;1772369;81;20300;-63
2022/06/03 03:33:06;;;;;;;;;;;;;;;19.34;67.69;100869.38;1774555;79;20199;-62
2022/06/03 03:40:11;;;;;;;;;;;;;;;19.60;67.80;100871.18;1621270;86;20205;-62
2022/06/03 03:43:39;;;;;;;;;;;;;;;19.78;67.90;100870.43;1657334;85;20287;-61
2022/06/03 03:47:11;;;;;;;;;;;;;;;19.95;67.91;100875.75;1677030;85;20207;-62
2022/06/03 03:50:40;;;;;;;;;;;;;;;20.18;67.98;100884.40;1680808;85;20215;-62
2022/06/03 03:54:01;;;;;;;;;;;;;;;20.44;68.07;100882.77;1680520;85;20348;-62
2022/06/03 03:57:35;;;;;;;;;;;;;;;20.71;68.03;100888.39;1680606;85;20361;-61
2022/06/03 04:00:59;;;;;;;;;;;;;;;20.82;67.86;100885.41;1680457;85;20211;-64
2022/06/03 04:04:10;;;;;;;;;;;;;;;20.82;67.68;100900.16;1680842;85;20594;-64
2022/06/03 04:07:45;;;;;;;;;;;;;;;20.79;67.71;100906.19;1680811;85;20228;-62
2022/06/03 04:11:26;;;;;;;;;;;;;;;20.76;67.81;100915.00;1680358;85;20211;-61
2022/06/03 04:14:53;;;;;;;;;;;;;;;20.74;67.94;100912.98;1680878;85;20184;-65
2022/06/03 04:18:17;;;;;;;;;;;;;;;20.69;67.92;100914.23;1680579;85;20195;-66
2022/06/03 04:21:49;;;;;;;;;;;;;;;20.64;68.01;100918.23;1681132;85;20191;-65
2022/06/03 04:25:26;;;;;;;;;;;;;;;20.61;68.04;100917.30;1680639;85;20191;-64
2022/06/03 04:28:58;;;;;;;;;;;;;;;20.54;68.03;100939.61;1680976;85;20540;-64
2022/06/03 04:32:35;;;;;;;;;;;;;;;20.51;68.23;100951.20;1680425;85;20536;-67
2022/06/03 04:36:09;;;;;;;;;;;;;;;20.53;68.43;100967.66;1700521;82;20228;-61
2022/06/03 04:39:31;;;;;;;;;;;;;;;20.49;68.48;100958.05;1736557;81;20219;-61
2022/06/03 04:42:47;;;;;;;;;;;;;;;20.52;68.65;100964.55;1755384;82;20203;-61
2022/06/03 04:46:16;;;;;;;;;;;;;;;20.61;68.74;100971.55;1752754;82;20193;-63
2022/06/03 04:49:38;;;;;;;;;;;;;;;20.71;68.86;100976.91;1685643;84;20206;-61
2022/06/03 04:53:23;;;;;;;;;;;;;;;20.86;68.95;100962.66;1700887;83;20220;-61
2022/06/03 04:56:49;;;;;;;;;;;;;;;20.98;68.92;100978.11;1627348;88;20254;-61
2022/06/03 05:00:01;;;;;;;;;;;;;;;21.09;68.90;100989.88;1667260;84;20222;-58
2022/06/03 05:03:33;;;;;;;;;;;;;;;21.21;68.93;101004.21;1738725;81;20225;-63
2022/06/03 05:07:09;;;;;;;;;;;;;;;21.37;68.96;101005.54;1722414;83;20224;-54
2022/06/03 05:10:39;;;;;;;;;;;;;;;21.55;68.95;101015.31;1732004;81;20205;-55
2022/06/03 05:14:01;;;;;;;;;;;;;;;21.76;68.84;101024.08;1732229;82;20220;-56
2022/06/03 05:17:22;;;;;;;;;;;;;;;21.91;68.72;101044.03;1743000;81;20230;-55
2022/06/03 05:20:35;;;;;;;;;;;;;;;21.96;68.62;101047.53;1739560;82;20582;-56
2022/06/03 05:23:53;;;;;;;;;;;;;;;21.93;68.59;101048.84;1719781;81;20216;-56
2022/06/03 05:27:28;;;;;;;;;;;;;;;21.89;68.55;101049.02;1777003;81;20207;-56
2022/06/03 05:30:55;;;;;;;;;;;;;;;21.86;68.59;101066.74;1740087;81;20229;-56
2022/06/03 05:34:36;;;;;;;;;;;;;;;21.79;68.70;101066.81;1751968;81;20209;-55
2022/06/03 05:38:00;;;;;;;;;;;;;;;21.77;68.76;101059.22;1751633;81;20213;-56
2022/06/03 05:45:27;;;;;;;;;;;;;;;21.69;68.81;101028.00;1734285;82;20590;-56
2022/06/03 05:48:51;;;;;;;;;;;;;;;21.60;68.81;101017.69;1735941;82;20262;-56
2022/06/03 05:52:13;;;;;;;;;;;;;;;21.43;68.87;101001.82;1705925;82;20311;-56
2022/06/03 05:55:40;;;;;;;;;;;;;;;21.25;69.01;100988.73;1731980;82;20202;-58
2022/06/03 05:58:49;;;;;;;;;;;;;;;21.13;69.16;100980.83;1633782;85;20223;-56
2022/06/03 06:02:19;;;;;;;;;;;;;;;21.03;69.27;100965.19;1672260;85;20264;-53
2022/06/03 06:05:48;;;;;;;;;;;;;;;20.95;69.40;100945.13;1672261;85;20587;-55
2022/06/03 06:09:17;;;;;;;;;;;;;;;20.89;69.54;100958.55;1642610;86;20215;-56
2022/06/03 06:12:45;;;;;;;;;;;;;;;20.85;69.66;100969.84;1687493;84;20240;-55
2022/06/03 06:16:10;;;;;;;;;;;;;;;20.82;69.73;100972.52;1688157;84;20212;-54
2022/06/03 06:19:36;;;;;;;;;;;;;;;20.83;69.80;100969.51;1685970;84;20237;-54
2022/06/03 06:22:41;;;;;;;;;;;;;;;20.83;69.82;100978.95;1688067;85;20220;-54
2022/06/03 06:25:46;;;;;;;;;;;;;;;20.82;69.84;100990.61;1688751;85;20216;-54
2022/06/03 06:29:28;;;;;;;;;;;;;;;20.86;69.87;100992.41;1687702;85;20255;-56
2022/06/03 06:32:59;;;;;;;;;;;;;;;20.91;69.88;100992.05;1717617;81;20210;-55
2022/06/03 06:36:23;;;;;;;;;;;;;;;21.04;69.94;100991.11;1732595;82;20269;-57
2022/06/03 06:39:45;;;;;;;;;;;;;;;21.22;69.99;100984.16;1714350;82;20476;-56
2022/06/03 06:43:22;;;;;;;;;;;;;;;21.47;69.94;100969.08;1668102;84;20639;-57
2022/06/03 06:46:59;;;;;;;;;;;;;;;21.73;69.88;100967.38;1665786;84;20558;-58
2022/06/03 06:50:24;;;;;;;;;;;;;;;21.99;69.88;100962.84;1652169;85;20669;-54
2022/06/03 06:53:38;;;;;;;;;;;;;;;22.26;69.87;100975.89;1683363;84;20221;-60
2022/06/03 06:56:46;;;;;;;;;;;;;;;22.48;69.77;100994.31;1653132;86;20216;-56
2022/06/03 06:59:56;;;;;;;;;;;;;;;22.52;69.55;101012.30;1684016;83;20275;-57
2022/06/03 07:03:19;;;;;;;;;;;;;;;22.43;69.33;101015.97;1692197;83;20224;-56
2022/06/03 07:06:37;;;;;;;;;;;;;;;22.34;69.32;101027.17;1682006;83;20259;-54
2022/06/03 07:09:50;;;;;;;;;;;;;;;22.23;69.19;101032.69;1679450;83;20618;-58
2022/06/03 07:13:32;;;;;;;;;;;;;;;22.10;69.17;101037.91;1652024;83;20227;-56
2022/06/03 07:20:41;;;;;;;;;;;;;;;21.83;69.26;101042.98;1646304;84;20215;-57
2022/06/03 07:23:59;;;;;;;;;;;;;;;21.70;69.30;101047.28;1657111;84;20259;-56
2022/06/03 07:27:06;;;;;;;;;;;;;;;21.52;69.27;101029.14;1697340;84;20217;-56
2022/06/03 07:30:20;;;;;;;;;;;;;;;21.33;69.24;101028.82;1702468;83;20265;-55
2022/06/03 07:33:42;;;;;;;;;;;;;;;21.15;69.16;101020.98;1669071;86;20223;-58
2022/06/03 07:36:56;;;;;;;;;;;;;;;20.98;69.24;101026.83;1669301;86;20250;-53
2022/06/03 07:40:27;;;;;;;;;;;;;;;20.92;69.39;101035.50;1633002;87;20225;-54
2022/06/03 07:43:36;;;;;;;;;;;;;;;20.95;69.55;101047.57;1643865;86;20189;-53
2022/06/03 07:47:00;;;;;;;;;;;;;;;21.08;69.58;101096.75;1621462;86;20223;-54
2022/06/03 07:50:12;;;;;;;;;;;;;;;21.18;69.52;101136.95;1628119;88;20592;-53
2022/06/03 07:53:27;;;;;;;;;;;;;;;21.22;69.56;101128.98;1633784;86;20237;-54
2022/06/03 07:56:35;;;;;;;;;;;;;;;21.29;69.68;101133.44;1688901;84;20200;-55
2022/06/03 07:59:43;;;;;;;;;;;;;;;21.43;69.70;101135.02;1678104;83;20796;-54
2022/06/03 08:02:50;;;;;;;;;;;;;;;21.51;69.62;101140.31;1666969;83;20240;-55
2022/06/03 08:05:58;;;;;;;;;;;;;;;21.55;69.57;101142.94;1674419;84;20324;-57
2022/06/03 08:12:35;;;;;;;;;;;;;;;21.64;69.45;101140.72;1689706;84;20205;-62
2022/06/03 08:15:45;;;;;;;;;;;;;;;21.67;69.44;101144.44;1680806;85;20520;-61
2022/06/03 08:18:52;;;;;;;;;;;;;;;21.69;69.44;101141.72;1681022;84;20603;-60
2022/06/03 08:21:58;;;;;;;;;;;;;;;21.71;69.43;101138.70;1675635;83;20223;-60
2022/06/03 08:25:05;;;;;;;;;;;;;;;21.63;69.39;101137.06;1649324;87;20218;-58
2022/06/03 08:28:11;;;;;;;;;;;;;;;21.54;69.47;101140.38;1646385;87;20458;-62
2022/06/03 08:31:18;;;;;;;;;;;;;;;21.42;69.60;101133.86;1643910;85;20557;-61
2022/06/03 08:34:25;;;;;;;;;;;;;;;21.28;69.75;101133.11;1623174;87;20211;-59
2022/06/03 08:37:36;;;;;;;;;;;;;;;21.18;69.83;101130.00;1645087;86;20676;-61
2022/06/03 08:41:11;;;;;;;;;;;;;;;21.07;69.95;101141.87;1650143;86;20586;-58
2022/06/03 08:44:41;;;;;;;;;;;;;;;20.99;70.09;101141.27;1714673;83;20255;-59
2022/06/03 08:47:54;;;;;;;;;;;;;;;20.95;70.22;101121.34;1693123;84;20217;-63
2022/06/03 08:51:06;;;;;;;;;;;;;;;20.87;70.21;101118.00;1694401;84;20204;-60
2022/06/03 08:54:18;;;;;;;;;;;;;;;20.76;70.29;101112.06;1717432;83;20247;-61
2022/06/03 08:57:36;;;;;;;;;;;;;;;20.74;70.42;101111.42;1706135;83;20210;-61
2022/06/03 09:00:50;;;;;;;;;;;;;;;20.75;70.47;101116.47;1707850;83;20207;-59
2022/06/03 09:04:06;;;;;;;;;;;;;;;20.84;70.57;101137.38;1747812;81;20219;-61
2022/06/03 09:07:26;;;;;;;;;;;;;;;20.92;70.66;101147.38;1764522;80;20554;-62
2022/06/03 09:10:51;;;;;;;;;;;;;;;21.04;70.75;101147.03;1763088;81;20280;-60
2022/06/03 09:14:04;;;;;;;;;;;;;;;21.19;70.82;101153.11;1751732;81;20210;-60
2022/06/03 09:17:33;;;;;;;;;;;;;;;21.32;70.86;101153.88;1734693;82;20580;-61
2022/06/03 09:20:42;;;;;;;;;;;;;;;21.42;70.74;101150.58;1727856;81;20220;-59
2022/06/03 09:23:52;;;;;;;;;;;;;;;21.42;70.71;101147.23;1737133;82;20205;-59
2022/06/03 09:27:02;;;;;;;;;;;;;;;21.45;70.74;101145.41;1750647;81;20209;-60
2022/06/03 09:30:07;;;;;;;;;;;;;;;21.46;70.72;101154.59;1684308;85;20222;-60
2022/06/03 09:33:12;;;;;;;;;;;;;;;21.48;70.75;101160.27;1751599;82;20277;-60
2022/06/03 09:36:18;;;;;;;;;;;;;;;21.50;70.77;101165.05;1737231;81;20212;-61
2022/06/03 09:39:31;;;;;;;;;;;;;;;21.44;70.79;101160.39;1711347;83;20239;-59
2022/06/03 09:42:37;;;;;;;;;;;;;;;21.37;70.81;101162.41;1775261;80;20370;-59
2022/06/03 09:45:46;;;;;;;;;;;;;;;21.28;70.83;101162.35;1743835;82;20273;-58
2022/06/03 09:48:51;;;;;;;;;;;;;;;21.20;70.92;101166.80;1736084;82;20661;-59
2022/06/03 09:51:59;;;;;;;;;;;;;;;21.14;70.97;101164.06;1743855;82;20214;-57
2022/06/03 09:55:14;;;;;;;;;;;;;;;21.09;71.06;101170.31;1726209;82;20566;-61
2022/06/03 09:58:23;;;;;;;;;;;;;;;21.06;71.14;101174.95;1743328;82;20217;-58
2022/06/03 10:01:30;;;;;;;;;;;;;;;21.07;71.24;101164.67;1742911;82;20241;-61
2022/06/03 10:04:37;;;;;;;;;;;;;;;21.12;71.32;101167.08;1743467;82;20213;-59
2022/06/03 10:07:47;;;;;;;;;;;;;;;21.27;71.39;101163.45;1745325;81;20558;-58
2022/06/03 10:14:24;;;;;;;;;;;;;;;21.82;71.39;101175.08;1749689;81;20229;-59
2022/06/03 10:17:30;;;;;;;;;;;;;;;22.05;71.14;101176.67;1742381;82;20578;-57
2022/06/03 10:20:36;;;;;;;;;;;;;;;22.15;70.98;101169.98;1745215;81;20237;-59
2022/06/03 10:24:02;;;;;;;;;;;;;;;22.21;70.79;101164.87;1704013;84;20212;-59
2022/06/03 10:27:09;;;;;;;;;;;;;;;22.27;70.71;101167.81;1674808;85;20226;-57
2022/06/03 10:30:16;;;;;;;;;;;;;;;22.29;70.60;101161.47;1704349;84;20212;-58
2022/06/03 10:33:28;;;;;;;;;;;;;;;22.23;70.43;101157.12;1683569;84;20661;-59
2022/06/03 10:36:44;;;;;;;;;;;;;;;22.21;70.51;101164.87;1695695;84;20568;-58
2022/06/03 10:39:49;;;;;;;;;;;;;;;22.23;70.48;101152.94;1689166;84;20542;-58
2022/06/03 10:42:58;;;;;;;;;;;;;;;22.13;70.36;101143.43;1685565;84;20251;-58
2022/06/03 10:46:24;;;;;;;;;;;;;;;22.10;70.49;101157.28;1697050;84;20228;-58
2022/06/03 10:49:30;;;;;;;;;;;;;;;22.10;70.53;101143.33;1685416;83;20543;-53
2022/06/03 11:01:06;;;;;;;;;;;;;;;22.28;70.77;101138.85;1698305;84;20227;-53
2022/06/03 11:02:53;;;;;;;;;;;;;;;22.65;70.78;101144.17;1678786;84;20564;-52
2022/06/03 11:06:00;;;;;;;;;;;;;;;22.91;70.85;101144.33;1699068;84;20552;-54
2022/06/03 11:09:11;;;;;;;;;;;;;;;23.12;70.70;101151.61;1692227;84;20218;-51
2022/06/03 11:12:20;;;;;;;;;;;;;;;23.29;70.61;101159.63;1687001;85;20238;-57
2022/06/03 11:15:36;;;;;;;;;;;;;;;23.47;70.59;101151.70;1695376;84;20290;-60
2022/06/03 11:18:43;;;;;;;;;;;;;;;23.67;70.57;101157.81;1697949;83;20204;-59
2022/06/03 11:21:51;;;;;;;;;;;;;;;23.71;70.28;101156.22;1701076;83;20218;-58
2022/06/03 11:25:03;;;;;;;;;;;;;;;23.68;70.10;101153.91;1701714;83;20258;-60
2022/06/03 11:28:17;;;;;;;;;;;;;;;23.54;69.88;101146.86;1695915;83;20281;-57
2022/06/03 11:31:30;;;;;;;;;;;;;;;23.39;69.80;101138.08;1697102;83;20217;-60
2022/06/03 11:34:51;;;;;;;;;;;;;;;23.32;69.97;101156.92;1691477;83;20206;-60
2022/06/03 11:37:59;;;;;;;;;;;;;;;23.39;70.06;101153.45;1693642;83;20642;-60
2022/06/03 11:41:12;;;;;;;;;;;;;;;23.40;69.94;101155.17;1692155;83;20219;-59
2022/06/03 11:44:35;;;;;;;;;;;;;;;23.42;69.89;101156.63;1679283;84;20262;-59
2022/06/03 11:47:48;;;;;;;;;;;;;;;23.51;69.95;101152.94;1660265;85;20575;-60
2022/06/03 11:50:53;;;;;;;;;;;;;;;23.54;69.83;101152.45;1683857;84;20214;-58
2022/06/03 11:53:59;;;;;;;;;;;;;;;23.47;69.62;101148.38;1682672;85;20606;-60
2022/06/03 11:57:05;;;;;;;;;;;;;;;23.44;69.60;101142.41;1666965;85;20218;-59
2022/06/03 12:00:19;;;;;;;;;;;;;;;23.40;69.52;101149.02;1682985;84;20609;-60
2022/06/03 12:03:43;;;;;;;;;;;;;;;23.30;69.42;101150.71;1671131;84;20262;-59
2022/06/03 12:06:56;;;;;;;;;;;;;;;23.25;69.44;101139.36;1656728;86;20540;-58
2022/06/03 12:10:10;;;;;;;;;;;;;;;23.38;69.64;101139.19;1657255;86;20283;-60
2022/06/03 12:13:38;;;;;;;;;;;;;;;23.41;69.41;101140.09;1656204;86;20659;-59
2022/06/03 12:17:08;;;;;;;;;;;;;;;23.30;69.29;101145.13;1642193;86;20260;-60
2022/06/03 12:20:43;;;;;;;;;;;;;;;23.34;69.35;101130.99;1676655;85;20293;-57
2022/06/03 12:24:02;;;;;;;;;;;;;;;23.32;69.21;101140.16;1680373;85;20199;-58
2022/06/03 12:27:07;;;;;;;;;;;;;;;23.26;69.17;101139.72;1684172;85;20238;-59
2022/06/03 12:30:39;;;;;;;;;;;;;;;23.30;69.25;101132.02;1665957;85;20651;-59
2022/06/03 12:34:03;;;;;;;;;;;;;;;23.40;69.33;101121.06;1683100;84;20216;-60
2022/06/03 12:37:11;;;;;;;;;;;;;;;23.61;69.37;101130.27;1683787;85;20219;-61
2022/06/03 12:40:32;;;;;;;;;;;;;;;23.80;69.39;101128.19;1675575;84;20463;-60
2022/06/03 12:43:40;;;;;;;;;;;;;;;23.88;69.22;101122.22;1674833;83;20561;-60
2022/06/03 12:46:49;;;;;;;;;;;;;;;23.99;69.08;101120.56;1676925;84;20209;-62
2022/06/03 12:49:54;;;;;;;;;;;;;;;24.09;69.01;101122.16;1688693;83;20218;-60
2022/06/03 12:53:02;;;;;;;;;;;;;;;24.12;68.79;101124.50;1686570;84;20217;-60
2022/06/03 12:56:09;;;;;;;;;;;;;;;24.08;68.67;101125.53;1683826;84;20256;-62
2022/06/03 12:59:17;;;;;;;;;;;;;;;24.12;68.62;101123.92;1699572;84;20218;-60
2022/06/03 13:02:30;;;;;;;;;;;;;;;24.20;68.53;101123.55;1695382;83;20262;-62
2022/06/03 13:05:56;;;;;;;;;;;;;;;24.28;68.49;101123.16;1683545;84;20250;-66
2022/06/03 13:12:44;;;;;;;;;;;;;;;24.45;68.45;101121.28;1688551;84;20223;-64
2022/06/03 13:15:50;;;;;;;;;;;;;;;24.53;68.22;101120.88;1686803;84;20623;-67
2022/06/03 13:18:58;;;;;;;;;;;;;;;24.47;68.10;101121.88;1711266;84;20208;-64
2022/06/03 13:22:14;;;;;;;;;;;;;;;24.44;68.01;101115.39;1712333;84;20224;-63
2022/06/03 13:25:24;;;;;;;;;;;;;;;24.36;67.76;101113.52;1713539;83;20248;-63
2022/06/03 13:28:44;;;;;;;;;;;;;;;24.25;67.67;101119.46;1713621;83;20620;-64
2022/06/03 13:32:05;;;;;;;;;;;;;;;24.22;67.68;101112.96;1713500;83;20248;-64
2022/06/03 13:35:29;;;;;;;;;;;;;;;24.23;67.69;101114.66;1713603;83;20616;-66
2022/06/03 13:38:51;;;;;;;;;;;;;;;24.26;67.70;101116.13;1713437;83;20284;-64
2022/06/03 13:45:27;;;;;;;;;;;;;;;24.20;67.66;101107.29;1703995;83;20614;-61
2022/06/03 13:48:39;;;;;;;;;;;;;;;24.33;67.76;101091.09;1680384;83;20227;-64
2022/06/03 13:52:02;;;;;;;;;;;;;;;24.58;67.81;101090.19;1696841;84;20188;-63
2022/06/03 13:55:22;;;;;;;;;;;;;;;24.76;67.56;101092.83;1691638;84;20597;-64
2022/06/03 13:58:35;;;;;;;;;;;;;;;24.76;67.26;101094.77;1687607;85;20569;-64
2022/06/03 14:01:50;;;;;;;;;;;;;;;24.78;67.14;101096.20;1687622;85;20535;-66
2022/06/03 14:05:15;;;;;;;;;;;;;;;24.76;66.98;101101.77;1692289;84;20208;-64
2022/06/03 14:08:41;;;;;;;;;;;;;;;24.79;67.05;101090.92;1694018;84;20616;-62
2022/06/03 14:11:51;;;;;;;;;;;;;;;25.00;67.11;101101.95;1687734;84;20214;-65
2022/06/03 14:15:04;;;;;;;;;;;;;;;25.27;66.97;101099.33;1687247;85;20253;-63
2022/06/03 14:18:12;;;;;;;;;;;;;;;25.41;66.78;101096.50;1681739;85;20246;-63
2022/06/03 14:21:09;;;;;;;;;;;;;;;25.38;66.52;101099.28;1687394;84;20223;-64
2022/06/03 14:24:48;;;;;;;;;;;;;;;25.35;66.37;101093.33;1686415;84;20266;-65
2022/06/03 14:28:19;;;;;;;;;;;;;;;25.28;66.29;101094.86;1686115;85;20844;-62
2022/06/03 14:31:49;;;;;;;;;;;;;;;25.20;66.12;101090.25;1686287;85;20270;-63
2022/06/03 14:34:57;;;;;;;;;;;;;;;25.14;65.98;101087.04;1686373;85;20223;-62
2022/06/03 14:38:14;;;;;;;;;;;;;;;25.02;65.92;101093.57;1687940;83;20246;-62
2022/06/03 14:41:30;;;;;;;;;;;;;;;24.97;65.86;101089.84;1667089;85;20462;-62
2022/06/03 14:44:35;;;;;;;;;;;;;;;24.91;65.72;101083.28;1688399;83;20206;-62
2022/06/03 14:47:48;;;;;;;;;;;;;;;24.99;65.64;101081.47;1686877;85;20206;-64
2022/06/03 14:50:58;;;;;;;;;;;;;;;25.05;65.39;101087.45;1687879;83;20222;-62
2022/06/03 14:54:05;;;;;;;;;;;;;;;25.15;65.25;101085.95;1685996;85;20265;-66
2022/06/03 14:57:11;;;;;;;;;;;;;;;25.31;64.82;101080.91;1686578;85;20226;-64
2022/06/03 15:00:38;;;;;;;;;;;;;;;25.25;64.70;101086.11;1686414;85;20222;-64
2022/06/03 15:03:56;;;;;;;;;;;;;;;25.10;64.89;101085.33;1686635;85;20210;-60
2022/06/03 15:07:08;;;;;;;;;;;;;;;25.04;65.01;101091.37;1685935;85;20530;-64
2022/06/03 15:10:14;;;;;;;;;;;;;;;24.97;64.92;101089.84;1686163;85;20618;-62
2022/06/03 15:13:33;;;;;;;;;;;;;;;24.85;64.91;101091.30;1676652;84;20555;-60
2022/06/03 15:16:37;;;;;;;;;;;;;;;24.83;65.07;101092.10;1691015;84;20222;-61
2022/06/03 15:19:50;;;;;;;;;;;;;;;24.85;65.11;101091.84;1685858;85;20422;-61
2022/06/03 15:22:59;;;;;;;;;;;;;;;24.84;65.03;101089.62;1686761;85;20212;-65
2022/06/03 15:26:08;;;;;;;;;;;;;;;24.84;64.99;101086.81;1686535;85;20257;-65
2022/06/03 15:29:16;;;;;;;;;;;;;;;24.84;64.92;101088.22;1686583;84;20202;-60
2022/06/03 15:32:21;;;;;;;;;;;;;;;25.08;64.87;101095.06;1687571;85;20570;-62
2022/06/03 15:35:37;;;;;;;;;;;;;;;25.42;64.38;101093.44;1687096;84;20221;-64
2022/06/03 15:38:47;;;;;;;;;;;;;;;25.40;63.97;101091.47;1696367;83;20548;-60
2022/06/03 15:41:56;;;;;;;;;;;;;;;25.24;64.01;101106.84;1703951;83;20240;-63
2022/06/03 15:45:06;;;;;;;;;;;;;;;25.57;63.47;101098.45;1695500;83;20637;-61
2022/06/03 15:48:18;;;;;;;;;;;;;;;25.74;62.64;101099.27;1680814;84;20228;-63
2022/06/03 15:51:25;;;;;;;;;;;;;;;25.57;62.66;101112.47;1674901;85;20230;-62
2022/06/03 15:54:37;;;;;;;;;;;;;;;25.43;62.88;101113.93;1658629;86;20217;-61
2022/06/03 15:57:51;;;;;;;;;;;;;;;25.33;63.01;101108.11;1672175;85;20206;-64
2022/06/03 16:01:22;;;;;;;;;;;;;;;25.62;63.28;101115.36;1672565;85;20205;-60
2022/06/03 16:04:56;;;;;;;;;;;;;;;26.48;62.64;101109.89;1665646;85;20209;-63
2022/06/03 16:08:28;;;;;;;;;;;;;;;27.24;61.05;101103.12;1622954;87;20594;-62
2022/06/03 16:11:40;;;;;;;;;;;;;;;27.42;60.00;101107.80;1677648;85;20260;-66
2022/06/03 16:14:59;;;;;;;;;;;;;;;26.80;60.05;101110.00;1651861;86;20273;-63
2022/06/03 16:18:17;;;;;;;;;;;;;;;26.11;60.81;101118.11;1671837;84;20233;-63
2022/06/03 16:21:42;;;;;;;;;;;;;;;25.60;61.32;101117.02;1671312;85;20254;-64
2022/06/03 16:25:07;;;;;;;;;;;;;;;25.15;61.65;101113.98;1671959;85;20229;-62
2022/06/03 16:28:14;;;;;;;;;;;;;;;24.87;61.63;101114.86;1669987;85;20209;-64
2022/06/03 16:31:28;;;;;;;;;;;;;;;24.62;61.86;101116.61;1667401;85;20209;-63
2022/06/03 16:34:55;;;;;;;;;;;;;;;24.39;62.03;101115.28;1663416;85;20606;-62
2022/06/03 16:38:26;;;;;;;;;;;;;;;24.16;62.12;101125.15;1664548;85;20224;-62
2022/06/03 16:41:57;;;;;;;;;;;;;;;23.95;62.20;101125.75;1666692;85;20232;-64
2022/06/03 16:46:05;;;;;;;;;;;;;;;23.71;62.27;101132.45;1671569;85;20233;-63
2022/06/03 16:48:52;;;;;;;;;;;;;;;23.50;62.29;101131.65;1679622;84;20510;-62
2022/06/03 16:52:10;;;;;;;;;;;;;;;23.36;62.38;101137.17;1683441;84;20488;-61
2022/06/03 16:55:33;;;;;;;;;;;;;;;23.18;62.40;101138.08;1687527;84;20208;-62
2022/06/03 16:58:39;;;;;;;;;;;;;;;23.05;62.42;101141.11;1674493;83;20226;-62
2022/06/03 17:01:57;;;;;;;;;;;;;;;22.95;62.51;101138.56;1673600;84;20223;-62
2022/06/03 17:05:03;;;;;;;;;;;;;;;22.85;62.49;101143.33;1668604;84;20220;-63
2022/06/03 17:08:10;;;;;;;;;;;;;;;22.72;62.43;101143.52;1689382;84;20215;-63
2022/06/03 17:11:19;;;;;;;;;;;;;;;22.56;62.42;101143.34;1694301;84;20233;-62
2022/06/03 17:14:28;;;;;;;;;;;;;;;22.43;62.48;101156.03;1669808;85;20220;-63
2022/06/03 17:17:36;;;;;;;;;;;;;;;22.31;62.50;101159.31;1669258;86;20214;-63
2022/06/03 17:20:59;;;;;;;;;;;;;;;22.17;62.52;101172.02;1668973;86;20207;-63
2022/06/03 17:24:39;;;;;;;;;;;;;;;22.02;62.53;101166.52;1629978;85;20219;-64
2022/06/03 17:28:08;;;;;;;;;;;;;;;21.83;62.51;101169.83;1669105;86;20227;-66